Teruhou Maru No.22 — JD3202 — position and weather

sailwx.info

Track history (hours):
 
Tides and Currents Weather Stations Pressure Air Temp Water Temp Dewpoint Dewpoint Depression Visibility Wind Speed Wind Dir Waves Ship Positions

Teruhou Maru No.22

Last reported at 2016-Dec-03 23:33 UTC. Time now 2016-Dec-04 01:57 UTC.
Position N 34°37' E 134°54'.

Length 76 m; draft 5 m.

Type: Cargo ship. MMSI: 431002552.

Date/timePositionNaut miles runAvg speedWind from/ knotsBaromVisibWave heightAir tempDewpointWater temp
2016-Dec-03 23:33N 34°37' E 134°54'10 9.9
2016-Dec-03 22:33N 34°32' E 135°05'1311.9
2016-Dec-03 21:28N 34°19' E 135°04'5 5.8
2016-Dec-03 20:33N 34°15' E 135°07'0 0.0
2016-Dec-03 19:33N 34°15' E 135°07'0 0.0
2016-Dec-03 18:33N 34°15' E 135°07'0 0.0
2016-Dec-03 17:33N 34°15' E 135°07'0 0.0
2016-Dec-03 16:33N 34°15' E 135°07'0 0.0
2016-Dec-03 15:33N 34°15' E 135°07'0 0.0
2016-Dec-03 14:33N 34°15' E 135°07'0 0.0
2016-Dec-03 13:33N 34°15' E 135°07'0 0.4
2016-Dec-03 12:33N 34°14' E 135°07'0 0.0
2016-Dec-03 11:33N 34°14' E 135°07'0 0.0
2016-Dec-03 10:24N 34°14' E 135°07'0 0.0
2016-Dec-03 09:33N 34°14' E 135°07'0 0.0
2016-Dec-03 08:30N 34°14' E 135°07'0 0.0
2016-Dec-03 07:33N 34°14' E 135°07'0 0.0
2016-Dec-03 06:33N 34°14' E 135°07'0 0.0
2016-Dec-03 05:24N 34°14' E 135°07'0 0.0
2016-Dec-03 04:33N 34°14' E 135°07'0 0.0
2016-Dec-03 03:33N 34°14' E 135°07'0 0.0
2016-Dec-03 02:33N 34°14' E 135°07'0 0.1
2016-Dec-03 01:33N 34°14' E 135°07'0 0.0
2016-Dec-03 00:33N 34°14' E 135°07'0 0.0
2016-Dec-02 23:33N 34°14' E 135°07'  
2016-Nov-30 07:33N 35°19' E 139°43'6 6.2
2016-Nov-30 06:31N 35°23' E 139°50'2 1.6
2016-Nov-30 05:33N 35°22' E 139°51'0 0.0
2016-Nov-30 04:33N 35°22' E 139°51'0 0.0
2016-Nov-30 03:33N 35°22' E 139°51'0 0.0
2016-Nov-30 02:27N 35°22' E 139°51'0 0.0
2016-Nov-30 01:21N 35°22' E 139°51'0 0.0
2016-Nov-30 00:33N 35°22' E 139°51'0 0.0
2016-Nov-29 23:33N 35°22' E 139°51'0 0.0
2016-Nov-29 22:33N 35°22' E 139°51'0 0.0
2016-Nov-29 21:33N 35°22' E 139°51'0 0.0
2016-Nov-29 20:33N 35°22' E 139°51'0 0.0
2016-Nov-29 19:33N 35°22' E 139°51'0 0.0
2016-Nov-29 18:33N 35°22' E 139°51'0 0.0
2016-Nov-29 17:33N 35°22' E 139°51'0 0.0
2016-Nov-29 16:33N 35°22' E 139°51'0 0.0
2016-Nov-29 15:33N 35°22' E 139°51'0 0.0
2016-Nov-29 14:33N 35°22' E 139°51'2 0.4
2016-Nov-29 08:33N 35°24' E 139°50'0 0.0
2016-Nov-29 06:07N 35°24' E 139°50'0 0.0
2016-Nov-28 21:25N 35°24' E 139°50'0 0.0
2016-Nov-28 20:31N 35°24' E 139°50'0 0.0
2016-Nov-28 19:10N 35°24' E 139°50'0 0.0
2016-Nov-28 18:19N 35°24' E 139°50'0 0.0
2016-Nov-28 17:31N 35°24' E 139°50'0 0.0
2016-Nov-28 15:31N 35°24' E 139°50'0 0.0
2016-Nov-28 13:19N 35°24' E 139°50'0 0.0
2016-Nov-28 08:33N 35°24' E 139°50'14 1.4
2016-Nov-27 22:28N 35°37' E 139°57'0 0.0
2016-Nov-27 17:32N 35°37' E 139°57'1010.3
2016-Nov-27 16:33N 35°28' E 139°51'1111.2
2016-Nov-27 15:33N 35°18' E 139°45'246 9.4
2016-Nov-26 13:20N 34°05' E 134°60'912.0
2016-Nov-26 12:33N 34°14' E 134°59'1211.8
2016-Nov-26 11:33N 34°26' E 135°01'1010.3
2016-Nov-26 10:32N 34°37' E 135°02'1 0.0
2016-Nov-25 08:28N 34°37' E 135°01'1213.0
2016-Nov-25 07:33N 34°36' E 135°16'10 9.6
2016-Nov-25 06:30N 34°39' E 135°28'0 0.0
2016-Nov-25 05:32N 34°39' E 135°28'0 0.0
2016-Nov-25 04:33N 34°39' E 135°28'2 1.8
2016-Nov-25 03:33N 34°39' E 135°26'8 8.0
2016-Nov-25 02:33N 34°31' E 135°24'0 0.0
2016-Nov-25 01:33N 34°31' E 135°24'0 0.0
2016-Nov-25 00:31N 34°31' E 135°24'0 0.0
2016-Nov-24 23:31N 34°31' E 135°24'0 0.0
2016-Nov-24 22:31N 34°31' E 135°24'0 0.0
2016-Nov-24 21:13N 34°31' E 135°24'0 0.0
2016-Nov-24 20:31N 34°31' E 135°24'0 0.0
2016-Nov-24 19:13N 34°31' E 135°24'0 0.0
2016-Nov-24 18:31N 34°31' E 135°24'0 0.0
2016-Nov-24 17:31N 34°31' E 135°24'0 0.0
2016-Nov-24 16:31N 34°31' E 135°24'0 0.0
2016-Nov-24 15:31N 34°31' E 135°24'0 0.0
2016-Nov-24 14:25N 34°31' E 135°24'0 0.0
2016-Nov-24 13:19N 34°31' E 135°24'0 0.0
2016-Nov-24 12:31N 34°31' E 135°24'0 0.0
2016-Nov-24 11:19N 34°31' E 135°24'0 0.0
2016-Nov-24 10:31N 34°31' E 135°24'0 0.0
2016-Nov-24 09:31N 34°31' E 135°24'0 0.0
2016-Nov-24 08:31N 34°31' E 135°24'0 0.0
2016-Nov-24 07:31N 34°31' E 135°24'1 0.2
2016-Nov-24 01:26N 34°32' E 135°23'  
Track history (hours):
 
Tides and Currents Weather Stations Pressure Air Temp Water Temp Dewpoint Dewpoint Depression Visibility Wind Speed Wind Dir Waves Ship Positions

Teruhou Maru No.22

Last reported at 2016-Dec-03 23:33 UTC. Time now 2016-Dec-04 01:57 UTC.
Position N 34°37' E 134°54'.

Length 76 m; draft 5 m.

Type: Cargo ship. MMSI: 431002552.

Date/timePositionNaut miles runAvg speedWind from/ knotsBaromVisibWave heightAir tempDewpointWater temp
2016-Dec-03 23:33N 34°37' E 134°54'10 9.9
2016-Dec-03 22:33N 34°32' E 135°05'1311.9
2016-Dec-03 21:28N 34°19' E 135°04'5 5.8
2016-Dec-03 20:33N 34°15' E 135°07'0 0.0
2016-Dec-03 19:33N 34°15' E 135°07'0 0.0
2016-Dec-03 18:33N 34°15' E 135°07'0 0.0
2016-Dec-03 17:33N 34°15' E 135°07'0 0.0
2016-Dec-03 16:33N 34°15' E 135°07'0 0.0
2016-Dec-03 15:33N 34°15' E 135°07'0 0.0
2016-Dec-03 14:33N 34°15' E 135°07'0 0.0
2016-Dec-03 13:33N 34°15' E 135°07'0 0.4
2016-Dec-03 12:33N 34°14' E 135°07'0 0.0
2016-Dec-03 11:33N 34°14' E 135°07'0 0.0
2016-Dec-03 10:24N 34°14' E 135°07'0 0.0
2016-Dec-03 09:33N 34°14' E 135°07'0 0.0
2016-Dec-03 08:30N 34°14' E 135°07'0 0.0
2016-Dec-03 07:33N 34°14' E 135°07'0 0.0
2016-Dec-03 06:33N 34°14' E 135°07'0 0.0
2016-Dec-03 05:24N 34°14' E 135°07'0 0.0
2016-Dec-03 04:33N 34°14' E 135°07'0 0.0
2016-Dec-03 03:33N 34°14' E 135°07'0 0.0
2016-Dec-03 02:33N 34°14' E 135°07'0 0.1
2016-Dec-03 01:33N 34°14' E 135°07'0 0.0
2016-Dec-03 00:33N 34°14' E 135°07'0 0.0
2016-Dec-02 23:33N 34°14' E 135°07'  
2016-Nov-30 07:33N 35°19' E 139°43'6 6.2
2016-Nov-30 06:31N 35°23' E 139°50'2 1.6
2016-Nov-30 05:33N 35°22' E 139°51'0 0.0
2016-Nov-30 04:33N 35°22' E 139°51'0 0.0
2016-Nov-30 03:33N 35°22' E 139°51'0 0.0
2016-Nov-30 02:27N 35°22' E 139°51'0 0.0
2016-Nov-30 01:21N 35°22' E 139°51'0 0.0
2016-Nov-30 00:33N 35°22' E 139°51'0 0.0
2016-Nov-29 23:33N 35°22' E 139°51'0 0.0
2016-Nov-29 22:33N 35°22' E 139°51'0 0.0
2016-Nov-29 21:33N 35°22' E 139°51'0 0.0
2016-Nov-29 20:33N 35°22' E 139°51'0 0.0
2016-Nov-29 19:33N 35°22' E 139°51'0 0.0
2016-Nov-29 18:33N 35°22' E 139°51'0 0.0
2016-Nov-29 17:33N 35°22' E 139°51'0 0.0
2016-Nov-29 16:33N 35°22' E 139°51'0 0.0
2016-Nov-29 15:33N 35°22' E 139°51'0 0.0
2016-Nov-29 14:33N 35°22' E 139°51'2 0.4
2016-Nov-29 08:33N 35°24' E 139°50'0 0.0
2016-Nov-29 06:07N 35°24' E 139°50'0 0.0
2016-Nov-28 21:25N 35°24' E 139°50'0 0.0
2016-Nov-28 20:31N 35°24' E 139°50'0 0.0
2016-Nov-28 19:10N 35°24' E 139°50'0 0.0
2016-Nov-28 18:19N 35°24' E 139°50'0 0.0
2016-Nov-28 17:31N 35°24' E 139°50'0 0.0
2016-Nov-28 15:31N 35°24' E 139°50'0 0.0
2016-Nov-28 13:19N 35°24' E 139°50'0 0.0
2016-Nov-28 08:33N 35°24' E 139°50'14 1.4
2016-Nov-27 22:28N 35°37' E 139°57'0 0.0
2016-Nov-27 17:32N 35°37' E 139°57'1010.3
2016-Nov-27 16:33N 35°28' E 139°51'1111.2
2016-Nov-27 15:33N 35°18' E 139°45'246 9.4
2016-Nov-26 13:20N 34°05' E 134°60'912.0
2016-Nov-26 12:33N 34°14' E 134°59'1211.8
2016-Nov-26 11:33N 34°26' E 135°01'1010.3
2016-Nov-26 10:32N 34°37' E 135°02'1 0.0
2016-Nov-25 08:28N 34°37' E 135°01'1213.0
2016-Nov-25 07:33N 34°36' E 135°16'10 9.6
2016-Nov-25 06:30N 34°39' E 135°28'0 0.0
2016-Nov-25 05:32N 34°39' E 135°28'0 0.0
2016-Nov-25 04:33N 34°39' E 135°28'2 1.8
2016-Nov-25 03:33N 34°39' E 135°26'8 8.0
2016-Nov-25 02:33N 34°31' E 135°24'0 0.0
2016-Nov-25 01:33N 34°31' E 135°24'0 0.0
2016-Nov-25 00:31N 34°31' E 135°24'0 0.0
2016-Nov-24 23:31N 34°31' E 135°24'0 0.0
2016-Nov-24 22:31N 34°31' E 135°24'0 0.0
2016-Nov-24 21:13N 34°31' E 135°24'0 0.0
2016-Nov-24 20:31N 34°31' E 135°24'0 0.0
2016-Nov-24 19:13N 34°31' E 135°24'0 0.0
2016-Nov-24 18:31N 34°31' E 135°24'0 0.0
2016-Nov-24 17:31N 34°31' E 135°24'0 0.0
2016-Nov-24 16:31N 34°31' E 135°24'0 0.0
2016-Nov-24 15:31N 34°31' E 135°24'0 0.0
2016-Nov-24 14:25N 34°31' E 135°24'0 0.0
2016-Nov-24 13:19N 34°31' E 135°24'0 0.0
2016-Nov-24 12:31N 34°31' E 135°24'0 0.0
2016-Nov-24 11:19N 34°31' E 135°24'0 0.0
2016-Nov-24 10:31N 34°31' E 135°24'0 0.0
2016-Nov-24 09:31N 34°31' E 135°24'0 0.0
2016-Nov-24 08:31N 34°31' E 135°24'0 0.0
2016-Nov-24 07:31N 34°31' E 135°24'1 0.2
2016-Nov-24 01:26N 34°32' E 135°23'  

Dump ship's entire track history